Time;durP1;ratioP1;P1;durP2;ratioP2;P2;SDS_P1;SDS_P2;PMS_P1;PMS_P2;Temp;Humidity;BMP_temperature;BMP_pressure;BME280_temperature;BME280_humidity;BME280_pressure;Samples;Min_cycle;Max_cycle;Signal;HPM_P1;HPM_P2
2024/01/15 00:00:22;;;;;;;39.20;19.40;;;;;;;3.37;49.78;97776.09;6732710;29;20269;-81
2024/01/15 00:03:45;;;;;;;39.67;19.00;;;;;;;3.54;49.97;97757.06;6732770;29;20288;-82
2024/01/15 00:07:07;;;;;;;41.67;19.33;;;;;;;3.71;49.71;97765.69;6732165;29;20292;-81
2024/01/15 00:10:28;;;;;;;37.87;20.80;;;;;;;3.66;49.65;97760.06;6733353;29;20325;-82
2024/01/15 00:13:50;;;;;;;48.23;20.53;;;;;;;3.49;50.12;97758.63;6733410;29;20208;-82
2024/01/15 00:17:11;;;;;;;35.87;18.67;;;;;;;3.32;50.19;97767.84;6733047;29;20277;-82
2024/01/15 00:20:34;;;;;;;39.43;19.47;;;;;;;3.32;50.03;97767.84;6733979;29;20271;-81
2024/01/15 00:23:56;;;;;;;38.83;20.43;;;;;;;3.39;49.78;97752.75;6733150;29;20208;-81
2024/01/15 00:27:17;;;;;;;39.13;18.30;;;;;;;3.37;50.11;97752.94;6732178;29;20274;-82
2024/01/15 00:30:39;;;;;;;43.70;21.60;;;;;;;3.13;50.67;97763.09;6732592;29;20291;-82
2024/01/15 00:34:00;;;;;;;37.87;17.87;;;;;;;3.56;49.70;97763.03;6732566;29;20737;-81
2024/01/15 00:37:23;;;;;;;41.77;20.13;;;;;;;3.35;50.39;97752.31;6732367;29;20264;-82
2024/01/15 00:40:45;;;;;;;43.47;19.50;;;;;;;3.05;51.44;97755.16;6734953;29;20244;-81
2024/01/15 00:44:07;;;;;;;37.90;19.07;;;;;;;3.45;50.83;97760.84;6738346;29;20256;-82
2024/01/15 00:47:28;;;;;;;40.47;19.17;;;;;;;3.33;50.26;97746.34;6738900;29;20384;-81
2024/01/15 00:50:49;;;;;;;39.07;20.57;;;;;;;3.11;51.62;97762.41;6762088;29;20297;-81
2024/01/15 00:54:12;;;;;;;35.10;18.33;;;;;;;3.54;50.49;97759.72;6762728;29;20306;-82
2024/01/15 00:57:34;;;;;;;36.13;17.93;;;;;;;3.69;49.87;97749.88;6761200;29;20380;-81
2024/01/15 01:00:56;;;;;;;40.63;19.17;;;;;;;3.53;50.16;97752.75;6762135;29;20302;-82
2024/01/15 01:04:17;;;;;;;38.57;18.93;;;;;;;3.52;50.92;97750.25;6759007;29;20213;-82
2024/01/15 01:07:39;;;;;;;41.60;20.07;;;;;;;3.09;51.32;97753.78;6756591;29;20260;-84
2024/01/15 01:11:01;;;;;;;44.37;22.00;;;;;;;3.53;50.52;97751.91;6741024;29;20216;-80
2024/01/15 01:14:23;;;;;;;38.37;20.27;;;;;;;3.68;50.45;97745.56;6748798;29;20302;-81
2024/01/15 01:17:44;;;;;;;39.90;20.70;;;;;;;3.02;51.20;97747.56;6747189;29;20817;-82
2024/01/15 01:21:06;;;;;;;36.83;20.07;;;;;;;3.34;52.19;97731.19;6739912;29;20258;-81
2024/01/15 01:24:28;;;;;;;40.53;19.33;;;;;;;3.35;51.85;97741.66;6741221;29;20208;-81
2024/01/15 01:27:51;;;;;;;36.03;18.87;;;;;;;3.31;51.79;97737.69;6739195;29;20736;-81
2024/01/15 01:31:12;;;;;;;36.07;19.67;;;;;;;3.54;51.13;97724.28;6723981;29;20296;-82
2024/01/15 01:34:34;;;;;;;37.03;18.90;;;;;;;3.52;51.70;97727.13;6734017;29;20310;-82
2024/01/15 01:37:55;;;;;;;39.30;18.33;;;;;;;3.75;50.62;97725.13;6723505;29;20323;-82
2024/01/15 01:41:17;;;;;;;35.17;17.83;;;;;;;3.64;50.92;97736.28;6735987;29;20690;-82
2024/01/15 01:44:39;;;;;;;41.93;19.40;;;;;;;3.39;51.87;97724.31;6735781;29;20281;-82
2024/01/15 01:48:01;;;;;;;33.07;17.93;;;;;;;3.35;52.14;97735.50;6735263;29;20255;-82
2024/01/15 01:51:24;;;;;;;40.97;18.37;;;;;;;3.61;51.59;97730.50;6735414;29;20235;-81
2024/01/15 01:54:45;;;;;;;37.03;18.23;;;;;;;3.65;51.38;97729.94;6738725;29;20208;-82
2024/01/15 01:58:07;;;;;;;33.67;17.23;;;;;;;3.60;51.25;97737.66;6745817;29;20323;-82
2024/01/15 02:01:30;;;;;;;34.80;17.17;;;;;;;3.60;51.22;97731.50;6762242;29;20744;-82
2024/01/15 02:04:52;;;;;;;34.20;16.13;;;;;;;3.26;52.66;97726.78;6736425;29;20211;-81
2024/01/15 02:08:13;;;;;;;28.80;15.60;;;;;;;2.58;54.46;97739.53;6736709;29;20304;-82
2024/01/15 02:11:35;;;;;;;33.40;16.27;;;;;;;3.46;52.99;97719.88;6741745;29;20291;-84
2024/01/15 02:14:56;;;;;;;33.47;18.17;;;;;;;3.64;52.07;97706.97;6760078;29;20204;-84
2024/01/15 02:18:20;;;;;;;33.23;16.60;;;;;;;3.76;51.58;97716.13;6757005;29;20331;-84
2024/01/15 02:21:41;;;;;;;27.30;15.33;;;;;;;3.20;52.92;97711.53;6747588;29;20580;-84
2024/01/15 02:25:05;;;;;;;24.10;13.93;;;;;;;3.94;50.74;97700.50;6750096;29;20275;-84
2024/01/15 02:28:26;;;;;;;21.50;13.30;;;;;;;3.84;50.89;97697.31;6738714;29;20236;-82
2024/01/15 02:31:48;;;;;;;20.83;12.43;;;;;;;4.01;50.53;97711.25;6748497;29;20273;-83
2024/01/15 02:35:09;;;;;;;22.53;13.10;;;;;;;4.15;49.87;97713.84;6763589;29;20217;-82
2024/01/15 02:38:31;;;;;;;18.53;11.30;;;;;;;4.21;50.07;97704.25;6782618;29;20227;-82
2024/01/15 02:41:56;;;;;;;20.80;11.63;;;;;;;4.30;50.01;97697.75;6734691;29;20670;-83
2024/01/15 02:45:18;;;;;;;17.90;10.57;;;;;;;4.46;49.86;97708.13;6749022;29;20289;-83
2024/01/15 02:48:40;;;;;;;16.17;9.43;;;;;;;3.90;50.68;97699.22;6736214;29;20790;-83
2024/01/15 02:52:01;;;;;;;19.17;9.63;;;;;;;4.40;49.78;97685.72;6737582;29;20247;-83
2024/01/15 02:55:23;;;;;;;18.10;9.90;;;;;;;4.32;49.70;97691.19;6743060;29;20344;-82
2024/01/15 02:58:45;;;;;;;15.77;9.10;;;;;;;4.43;49.49;97709.34;6735841;29;20300;-83
2024/01/15 03:02:07;;;;;;;15.47;8.87;;;;;;;4.87;48.05;97693.88;6736857;29;20231;-83
2024/01/15 03:05:28;;;;;;;15.97;9.67;;;;;;;4.81;48.09;97691.13;6736350;29;20352;-83
2024/01/15 03:08:50;;;;;;;15.03;8.57;;;;;;;4.80;48.52;97692.16;6737232;29;20639;-81
2024/01/15 03:12:11;;;;;;;13.87;8.63;;;;;;;4.56;48.78;97677.44;6735477;29;20224;-82
2024/01/15 03:15:34;;;;;;;15.90;9.10;;;;;;;4.89;48.63;97702.50;6735613;29;20219;-84
2024/01/15 03:18:56;;;;;;;18.93;9.53;;;;;;;5.03;48.36;97696.22;6732966;29;20236;-81
2024/01/15 03:22:17;;;;;;;22.17;10.57;;;;;;;4.53;49.15;97685.81;6733173;29;20303;-81
2024/01/15 03:25:39;;;;;;;18.27;10.57;;;;;;;4.92;48.42;97695.94;6733043;29;20224;-80
2024/01/15 03:29:00;;;;;;;20.93;10.10;;;;;;;4.97;48.41;97691.66;6733243;29;20318;-81
2024/01/15 03:32:23;;;;;;;20.83;13.13;;;;;;;4.85;47.75;97676.38;6733904;29;20250;-80
2024/01/15 03:35:45;;;;;;;18.97;12.37;;;;;;;4.81;48.48;97677.78;6730266;29;20208;-81
2024/01/15 03:39:07;;;;;;;19.00;11.13;;;;;;;4.79;48.76;97694.00;6744983;29;20327;-80
2024/01/15 03:42:29;;;;;;;19.00;11.17;;;;;;;4.53;48.69;97672.47;6730813;29;20267;-80
2024/01/15 03:45:50;;;;;;;18.37;10.50;;;;;;;4.79;48.62;97677.97;6733007;29;20413;-80
2024/01/15 03:49:13;;;;;;;18.10;10.33;;;;;;;4.82;48.54;97677.59;6733440;29;20383;-80
2024/01/15 03:52:34;;;;;;;17.43;9.77;;;;;;;4.82;48.59;97684.78;6738089;29;20634;-79
2024/01/15 03:55:56;;;;;;;20.47;12.13;;;;;;;4.53;48.30;97668.97;6748894;29;20685;-81
2024/01/15 03:59:17;;;;;;;16.67;10.00;;;;;;;4.73;48.27;97672.63;6751692;29;20269;-81
2024/01/15 04:02:39;;;;;;;15.57;9.20;;;;;;;4.55;48.75;97665.09;6758183;29;20220;-83
2024/01/15 04:06:02;;;;;;;16.17;9.07;;;;;;;4.70;48.61;97671.16;6714558;29;20363;-83
2024/01/15 04:09:23;;;;;;;17.80;9.90;;;;;;;4.62;48.68;97662.47;6725192;29;20352;-81
2024/01/15 04:12:46;;;;;;;19.27;10.40;;;;;;;4.38;48.96;97668.25;6731433;29;20306;-81
2024/01/15 04:16:07;;;;;;;16.60;9.60;;;;;;;4.59;48.95;97649.50;6732665;29;20267;-81
2024/01/15 04:19:29;;;;;;;14.37;9.63;;;;;;;4.86;47.81;97629.97;6741147;29;20236;-81
2024/01/15 04:22:52;;;;;;;17.50;9.90;;;;;;;4.86;48.35;97646.00;6736088;29;20307;-82
2024/01/15 04:26:13;;;;;;;17.80;10.20;;;;;;;4.79;48.37;97640.59;6735046;29;20219;-82
2024/01/15 04:29:35;;;;;;;18.57;10.93;;;;;;;4.83;48.47;97647.19;6740635;29;20314;-83
2024/01/15 04:32:56;;;;;;;18.90;9.60;;;;;;;4.47;49.51;97651.06;6757392;29;20320;-81
2024/01/15 04:36:18;;;;;;;16.87;9.90;;;;;;;4.55;48.89;97638.41;6736989;29;20304;-81
2024/01/15 04:39:41;;;;;;;14.10;9.40;;;;;;;4.70;48.69;97639.13;6737324;29;20292;-80
2024/01/15 04:43:02;;;;;;;15.30;9.30;;;;;;;4.84;48.42;97640.84;6746959;29;20704;-81
2024/01/15 04:46:24;;;;;;;14.73;9.33;;;;;;;4.75;48.27;97639.38;6736218;29;20261;-80
2024/01/15 04:49:45;;;;;;;16.27;9.87;;;;;;;4.63;48.89;97646.28;6736834;29;20233;-81
2024/01/15 04:53:07;;;;;;;18.13;9.80;;;;;;;4.77;48.96;97641.84;6737190;29;20304;-80
2024/01/15 04:56:29;;;;;;;16.60;8.90;;;;;;;4.71;49.08;97648.78;6739604;29;20220;-80
2024/01/15 04:59:51;;;;;;;15.53;10.20;;;;;;;4.35;49.36;97639.28;6737363;29;20843;-80
2024/01/15 05:03:12;;;;;;;17.53;10.17;;;;;;;4.39;49.28;97614.72;6715063;29;20209;-81
2024/01/15 05:06:34;;;;;;;17.50;10.27;;;;;;;4.20;50.17;97622.56;6710222;29;20292;-80
2024/01/15 05:09:55;;;;;;;18.27;10.63;;;;;;;3.25;53.34;97637.25;6731116;29;20298;-81
2024/01/15 05:13:18;;;;;;;15.30;9.57;;;;;;;3.21;53.35;97636.00;6740261;29;20246;-80
2024/01/15 05:16:40;;;;;;;15.63;9.00;;;;;;;2.90;54.38;97638.03;6740178;29;20223;-80
2024/01/15 05:20:03;;;;;;;14.67;9.10;;;;;;;3.67;52.43;97631.94;6761096;29;20319;-79
2024/01/15 05:23:24;;;;;;;15.87;8.87;;;;;;;3.76;52.35;97632.66;6738549;29;20216;-80
2024/01/15 05:26:46;;;;;;;14.73;9.30;;;;;;;3.85;51.69;97635.00;6757254;29;20311;-81
2024/01/15 05:30:10;;;;;;;13.90;8.27;;;;;;;4.52;50.01;97627.31;6745429;29;20207;-81
2024/01/15 05:33:31;;;;;;;12.47;8.37;;;;;;;4.28;50.66;97631.25;6735250;29;20331;-80
2024/01/15 05:36:53;;;;;;;16.60;9.63;;;;;;;4.84;49.31;97632.81;6735285;29;20376;-81
2024/01/15 05:40:14;;;;;;;15.47;8.33;;;;;;;4.37;49.87;97631.94;6736494;29;20795;-80
2024/01/15 05:43:36;;;;;;;14.97;8.77;;;;;;;4.32;50.69;97611.16;6735302;29;20325;-81
2024/01/15 05:46:58;;;;;;;16.17;9.63;;;;;;;4.74;49.12;97608.34;6759581;29;20257;-81
2024/01/15 05:50:20;;;;;;;13.10;8.30;;;;;;;4.97;49.07;97592.84;6752072;29;20741;-81
2024/01/15 05:53:44;;;;;;;14.93;8.80;;;;;;;4.57;48.84;97569.66;6734699;29;20685;-82
2024/01/15 05:57:05;;;;;;;16.40;8.90;;;;;;;4.16;50.72;97584.81;6733992;29;20229;-81
2024/01/15 06:00:27;;;;;;;16.77;9.27;;;;;;;3.84;51.79;97597.88;6726386;29;20233;-84
2024/01/15 06:03:49;;;;;;;13.97;8.27;;;;;;;4.19;50.96;97608.41;6735450;29;20205;-84
2024/01/15 06:07:11;;;;;;;15.87;8.57;;;;;;;4.42;50.72;97614.31;6745088;29;20376;-84
2024/01/15 06:10:33;;;;;;;14.37;8.23;;;;;;;4.56;50.64;97592.03;6737775;29;20205;-83
2024/01/15 06:13:54;;;;;;;14.00;8.70;;;;;;;5.08;49.59;97592.25;6734532;29;20291;-84
2024/01/15 06:17:16;;;;;;;15.53;9.80;;;;;;;5.14;49.26;97596.00;6728769;29;20256;-83
2024/01/15 06:20:39;;;;;;;17.97;9.00;;;;;;;4.89;50.37;97602.88;6733987;29;20305;-84
2024/01/15 06:24:00;;;;;;;17.17;9.97;;;;;;;4.83;50.38;97598.34;6737817;29;20220;-85
2024/01/15 06:27:22;;;;;;;15.40;9.50;;;;;;;5.04;49.82;97617.75;6730809;29;20577;-84
2024/01/15 06:30:43;;;;;;;15.47;9.10;;;;;;;5.13;49.26;97599.69;6730417;29;20259;-84
2024/01/15 06:34:05;;;;;;;16.73;9.10;;;;;;;4.77;50.08;97596.47;6732531;29;20206;-84
2024/01/15 06:37:28;;;;;;;13.07;8.77;;;;;;;5.17;49.51;97592.91;6734810;29;20807;-84
2024/01/15 06:40:50;;;;;;;16.20;9.13;;;;;;;5.23;49.06;97600.94;6750224;29;20260;-83
2024/01/15 06:44:26;;;;;;;16.37;9.60;;;;;;;4.58;50.29;97581.97;6736508;29;20215;-83
2024/01/15 06:47:47;;;;;;;12.97;8.63;;;;;;;4.44;51.05;97576.75;6653749;29;20228;-83
2024/01/15 06:51:09;;;;;;;15.03;8.47;;;;;;;4.90;50.06;97581.31;6676217;29;20349;-83
2024/01/15 06:54:32;;;;;;;15.17;9.07;;;;;;;5.12;49.26;97572.13;6670497;29;20242;-83
2024/01/15 06:57:53;;;;;;;16.00;9.07;;;;;;;4.80;49.36;97575.53;6675405;29;20229;-84
2024/01/15 07:01:15;;;;;;;13.13;8.67;;;;;;;4.77;49.77;97567.09;6644178;29;20215;-83
2024/01/15 07:04:37;;;;;;;13.53;8.43;;;;;;;5.29;48.78;97586.78;6645761;29;20286;-82
2024/01/15 07:07:58;;;;;;;14.33;9.07;;;;;;;5.29;49.08;97591.28;6639774;29;20317;-82
2024/01/15 07:11:21;;;;;;;13.27;8.43;;;;;;;5.31;48.79;97599.94;6654822;29;20254;-82
2024/01/15 07:14:43;;;;;;;11.57;8.33;;;;;;;5.52;48.56;97584.56;6647810;29;20209;-82
2024/01/15 07:18:05;;;;;;;18.87;11.27;;;;;;;5.34;48.78;97605.72;6644126;29;20707;-83
2024/01/15 07:21:27;;;;;;;13.67;9.90;;;;;;;5.56;48.81;97612.56;6652570;29;20246;-82
2024/01/15 07:24:48;;;;;;;13.63;9.17;;;;;;;5.28;49.38;97597.66;6702093;29;20220;-81
2024/01/15 07:28:11;;;;;;;15.17;9.43;;;;;;;5.43;48.16;97604.50;6738070;29;20311;-82
2024/01/15 07:31:33;;;;;;;14.87;10.03;;;;;;;5.58;48.52;97613.19;6736658;29;20269;-83
2024/01/15 07:34:55;;;;;;;14.87;9.20;;;;;;;6.11;47.35;97606.03;6729344;29;20220;-82
2024/01/15 07:38:16;;;;;;;15.00;9.43;;;;;;;6.14;47.10;97598.41;6734236;29;20354;-85
2024/01/15 07:41:38;;;;;;;14.40;9.43;;;;;;;5.81;47.86;97589.59;6734560;29;20299;-83
2024/01/15 07:45:01;;;;;;;12.97;9.43;;;;;;;6.10;46.73;97583.84;6739401;29;20255;-83
2024/01/15 07:48:22;;;;;;;15.53;8.20;;;;;;;6.21;46.29;97601.94;6733604;29;21616;-86
2024/01/15 07:51:44;;;;;;;14.23;8.10;;;;;;;6.13;46.08;97602.13;6733902;29;20261;-82
2024/01/15 07:55:06;;;;;;;12.53;8.80;;;;;;;6.40;46.53;97590.38;6735147;29;20527;-80
2024/01/15 07:58:28;;;;;;;11.50;7.63;;;;;;;5.60;46.79;97600.41;6735967;29;20233;-81
2024/01/15 08:01:51;;;;;;;9.87;7.93;;;;;;;6.12;46.28;97580.94;6734370;29;20356;-83
2024/01/15 08:05:12;;;;;;;14.77;8.57;;;;;;;6.21;45.47;97564.47;6730782;29;20242;-82
2024/01/15 08:08:34;;;;;;;10.73;7.70;;;;;;;5.55;46.82;97602.06;6730953;29;20315;-81
2024/01/15 08:11:55;;;;;;;12.90;8.37;;;;;;;6.22;46.08;97571.47;6735083;29;20238;-81
2024/01/15 08:15:18;;;;;;;11.17;7.70;;;;;;;6.69;47.00;97573.84;6732821;29;20349;-81
2024/01/15 08:18:42;;;;;;;11.73;7.53;;;;;;;6.80;44.86;97593.78;6734737;29;20546;-80
2024/01/15 08:22:04;;;;;;;12.90;8.40;;;;;;;6.76;44.38;97592.56;6730287;29;20273;-82
2024/01/15 08:25:25;;;;;;;12.63;7.90;;;;;;;6.40;44.55;97584.19;6738967;29;20261;-83
2024/01/15 08:28:47;;;;;;;12.63;7.13;;;;;;;6.45;44.38;97595.94;6741797;29;20389;-82
2024/01/15 08:32:13;;;;;;;13.20;7.57;;;;;;;5.78;45.54;97597.97;6737770;29;20217;-84
2024/01/15 08:35:36;;;;;;;12.23;7.77;;;;;;;5.75;45.92;97593.03;6733084;29;20296;-84
2024/01/15 08:38:58;;;;;;;11.90;8.00;;;;;;;6.15;44.88;97584.03;6738693;29;20687;-83
2024/01/15 08:42:19;;;;;;;12.03;7.03;;;;;;;6.33;44.42;97560.13;6732980;29;20250;-84
2024/01/15 08:45:41;;;;;;;9.17;7.50;;;;;;;6.26;44.24;97579.91;6732051;29;20690;-84
2024/01/15 08:49:03;;;;;;;11.90;7.43;;;;;;;6.22;44.05;97578.66;6724896;29;20836;-83
2024/01/15 08:52:26;;;;;;;9.23;6.83;;;;;;;6.40;43.97;97589.56;6737864;29;20228;-82
2024/01/15 08:55:47;;;;;;;11.53;7.00;;;;;;;6.27;44.12;97582.38;6734012;29;20201;-81
2024/01/15 08:59:11;;;;;;;13.03;8.97;;;;;;;6.31;44.03;97590.81;6730943;29;20587;-83
2024/01/15 09:02:32;;;;;;;13.60;7.30;;;;;;;6.16;44.35;97595.53;6729607;29;20211;-84
2024/01/15 09:05:54;;;;;;;9.87;7.23;;;;;;;6.21;43.88;97590.41;6737227;29;20216;-83
2024/01/15 09:09:17;;;;;;;9.80;6.43;;;;;;;6.64;42.57;97595.06;6736221;29;20233;-83
2024/01/15 09:12:39;;;;;;;9.40;6.53;;;;;;;6.60;43.16;97596.50;6733937;29;20209;-84
2024/01/15 09:16:00;;;;;;;9.00;6.03;;;;;;;6.53;42.24;97581.50;6737463;29;20206;-79
2024/01/15 09:19:22;;;;;;;8.97;5.63;;;;;;;6.26;42.61;97561.16;6735044;29;20234;-82
2024/01/15 09:22:44;;;;;;;8.57;5.87;;;;;;;6.67;41.69;97549.13;6733489;29;20300;-85
2024/01/15 09:26:09;;;;;;;9.90;6.60;;;;;;;6.76;42.35;97563.09;6727126;29;20213;-82
2024/01/15 09:29:30;;;;;;;9.23;5.90;;;;;;;6.76;42.40;97563.94;6738294;29;20719;-84
2024/01/15 09:32:52;;;;;;;6.80;5.67;;;;;;;6.73;42.53;97563.53;6737624;29;20238;-83
2024/01/15 09:36:13;;;;;;;9.47;6.10;;;;;;;6.81;42.16;97568.63;6734226;29;20217;-84
2024/01/15 09:39:50;;;;;;;8.03;5.80;;;;;;;6.65;43.51;97558.38;6737027;29;20320;-83
2024/01/15 09:43:13;;;;;;;9.93;6.03;;;;;;;6.64;44.92;97559.44;6628824;29;20263;-84
2024/01/15 09:46:35;;;;;;;8.27;5.57;;;;;;;6.52;43.90;97555.75;6626449;29;20268;-83
2024/01/15 09:49:57;;;;;;;7.67;5.77;;;;;;;7.43;42.79;97564.22;6616067;29;20243;-83
2024/01/15 09:53:20;;;;;;;9.87;7.07;;;;;;;7.46;41.87;97549.56;6613804;29;20270;-79
2024/01/15 09:56:42;;;;;;;9.37;6.07;;;;;;;7.61;41.37;97550.09;6626898;29;20223;-84
2024/01/15 10:00:07;;;;;;;8.83;5.37;;;;;;;7.86;41.63;97529.47;6617811;29;20229;-83
2024/01/15 10:03:28;;;;;;;8.40;4.77;;;;;;;7.88;41.75;97533.56;6615737;29;20214;-84
2024/01/15 10:06:52;;;;;;;10.53;6.57;;;;;;;7.65;40.89;97522.63;6621465;29;20232;-82
2024/01/15 10:10:13;;;;;;;14.33;8.63;;;;;;;7.58;41.77;97545.16;6608495;29;20275;-85
2024/01/15 10:13:35;;;;;;;10.23;6.77;;;;;;;8.06;41.90;97532.78;6610788;29;20217;-81
2024/01/15 10:16:57;;;;;;;9.07;4.87;;;;;;;7.87;40.08;97515.84;6621952;29;20722;-81
2024/01/15 10:20:22;;;;;;;8.43;4.73;;;;;;;7.57;41.64;97530.94;6693712;29;20352;-83
2024/01/15 10:23:44;;;;;;;8.07;5.63;;;;;;;7.19;42.26;97507.88;6736621;29;20213;-82
2024/01/15 10:27:06;;;;;;;7.07;4.73;;;;;;;7.35;40.71;97518.06;6731935;29;20236;-82
2024/01/15 10:30:28;;;;;;;5.57;4.80;;;;;;;6.45;42.69;97512.94;6735018;29;20216;-83
2024/01/15 10:33:51;;;;;;;8.97;5.47;;;;;;;6.57;42.63;97505.91;6729436;29;20252;-83
2024/01/15 10:37:12;;;;;;;8.87;5.50;;;;;;;6.23;42.60;97486.66;6726735;29;20237;-82
2024/01/15 10:40:36;;;;;;;9.07;5.50;;;;;;;6.30;43.60;97504.34;6732160;29;20276;-83
2024/01/15 10:44:00;;;;;;;6.30;4.63;;;;;;;6.58;42.95;97496.84;6722209;29;20269;-82
2024/01/15 10:47:22;;;;;;;8.00;4.57;;;;;;;6.55;42.53;97491.91;6730309;29;20229;-81
2024/01/15 10:50:45;;;;;;;7.63;5.20;;;;;;;6.75;42.48;97487.28;6732237;29;20943;-81
2024/01/15 10:54:10;;;;;;;8.17;5.33;;;;;;;7.35;41.63;97467.97;6728922;29;20272;-80
2024/01/15 10:57:32;;;;;;;24.87;6.50;;;;;;;7.25;41.40;97486.38;6731370;29;20238;-81
2024/01/15 11:00:57;;;;;;;6.27;5.07;;;;;;;7.13;41.94;97474.72;6729223;29;20229;-81
2024/01/15 11:04:19;;;;;;;9.83;4.43;;;;;;;6.84;42.66;97490.56;6730985;29;20264;-82
2024/01/15 11:07:43;;;;;;;6.73;4.97;;;;;;;7.14;41.83;97487.06;6731112;29;20229;-81
2024/01/15 11:11:05;;;;;;;9.73;5.33;;;;;;;6.96;42.25;97483.50;6728290;29;20262;-82
2024/01/15 11:14:36;;;;;;;7.17;5.33;;;;;;;6.82;42.72;97469.34;6732315;29;20267;-82
2024/01/15 11:18:00;;;;;;;7.47;5.10;;;;;;;6.78;42.95;97483.38;6729330;29;20505;-82
2024/01/15 11:21:26;;;;;;;6.43;4.80;;;;;;;6.72;43.16;97481.53;6729938;29;20232;-81
2024/01/15 11:24:48;;;;;;;8.47;5.10;;;;;;;6.79;43.21;97476.97;6731569;29;20209;-82
2024/01/15 11:28:10;;;;;;;5.80;4.97;;;;;;;6.35;43.96;97471.56;6726773;29;20255;-86
2024/01/15 11:32:00;;;;;;;6.03;4.43;;;;;;;6.29;44.95;97483.13;6731356;29;20749;-83
2024/01/15 11:35:22;;;;;;;9.30;5.37;;;;;;;6.10;45.69;97482.16;6729410;29;20233;-80
2024/01/15 11:38:44;;;;;;;6.57;5.23;;;;;;;6.17;46.20;97458.88;6723322;29;20634;-81
2024/01/15 11:42:07;;;;;;;8.43;5.20;;;;;;;6.51;46.84;97453.22;6731036;29;20750;-81
2024/01/15 11:45:29;;;;;;;5.87;4.73;;;;;;;6.20;47.43;97450.41;6722143;29;20243;-82
2024/01/15 11:48:54;;;;;;;6.37;4.90;;;;;;;6.49;46.84;97446.44;6731699;29;20246;-81
2024/01/15 11:52:18;;;;;;;5.97;5.20;;;;;;;6.10;48.60;97452.72;6731393;29;20739;-82
2024/01/15 11:55:40;;;;;;;7.23;4.90;;;;;;;6.05;48.51;97446.34;6730545;29;20247;-85
2024/01/15 11:59:03;;;;;;;7.73;5.57;;;;;;;5.93;49.93;97456.06;6729140;29;20370;-82
2024/01/15 12:02:24;;;;;;;7.70;5.50;;;;;;;6.02;48.57;97441.44;6720314;29;20265;-83
2024/01/15 12:05:46;;;;;;;8.30;5.77;;;;;;;6.34;48.24;97438.66;6730867;29;20300;-81
2024/01/15 12:09:07;;;;;;;6.40;5.20;;;;;;;6.44;48.18;97449.75;6731820;29;20365;-82
2024/01/15 12:12:40;;;;;;;7.83;4.83;;;;;;;6.29;48.46;97451.84;6731361;29;20270;-81
2024/01/15 12:16:04;;;;;;;7.20;5.37;;;;;;;6.07;49.73;97466.50;6722825;29;20202;-82
2024/01/15 12:19:25;;;;;;;7.43;5.30;;;;;;;5.78;51.79;97448.22;6721753;29;20240;-81
2024/01/15 12:22:47;;;;;;;8.47;5.33;;;;;;;5.75;52.19;97439.78;6732797;29;20314;-83
2024/01/15 12:26:08;;;;;;;5.63;4.80;;;;;;;5.48;51.40;97455.03;6731743;29;20756;-82
2024/01/15 12:29:30;;;;;;;6.17;4.80;;;;;;;5.97;50.77;97444.75;6729345;29;20316;-81
2024/01/15 12:32:53;;;;;;;8.23;5.70;;;;;;;6.45;49.90;97451.38;6731075;29;20261;-82
2024/01/15 12:36:14;;;;;;;8.30;5.77;;;;;;;6.29;50.63;97457.19;6735686;29;20238;-82
2024/01/15 12:39:36;;;;;;;8.20;5.67;;;;;;;5.94;51.61;97437.13;6746328;29;20290;-82
2024/01/15 12:42:57;;;;;;;7.47;5.10;;;;;;;5.33;53.14;97446.41;6746174;29;20224;-82
2024/01/15 12:46:19;;;;;;;6.73;5.17;;;;;;;5.69;53.34;97478.06;6737677;29;20305;-81
2024/01/15 12:49:42;;;;;;;7.07;5.83;;;;;;;5.61;54.29;97478.28;6736634;29;20291;-82
2024/01/15 12:53:08;;;;;;;9.07;5.93;;;;;;;5.74;54.04;97480.94;6737884;29;20693;-81
2024/01/15 12:56:29;;;;;;;7.70;5.80;;;;;;;5.60;54.22;97468.63;6735027;29;20646;-81
2024/01/15 12:59:51;;;;;;;6.23;5.07;;;;;;;5.43;55.96;97468.19;6733685;29;20275;-81
2024/01/15 13:03:13;;;;;;;8.13;5.73;;;;;;;4.84;58.18;97482.50;6736207;29;20639;-82
2024/01/15 13:06:36;;;;;;;7.37;5.30;;;;;;;5.26;57.66;97474.16;6732156;29;20245;-81
2024/01/15 13:09:58;;;;;;;8.57;6.17;;;;;;;5.28;58.31;97478.28;6726965;29;20205;-81
2024/01/15 13:13:20;;;;;;;8.70;7.17;;;;;;;5.68;56.61;97463.88;6734332;29;20271;-81
2024/01/15 13:16:42;;;;;;;11.77;6.70;;;;;;;5.54;57.02;97472.94;6731905;29;20221;-81
2024/01/15 13:20:05;;;;;;;11.37;6.83;;;;;;;4.84;59.29;97451.25;6733701;29;20293;-82
2024/01/15 13:23:28;;;;;;;9.47;6.87;;;;;;;5.10;58.91;97493.22;6735200;29;20236;-82
2024/01/15 13:26:49;;;;;;;9.00;6.87;;;;;;;5.43;58.16;97494.09;6736198;29;20335;-81
2024/01/15 13:30:12;;;;;;;8.13;6.07;;;;;;;5.71;58.03;97495.53;6736925;29;20758;-83
2024/01/15 13:33:33;;;;;;;8.10;6.00;;;;;;;5.74;57.66;97496.97;6734528;29;20217;-81
2024/01/15 13:36:55;;;;;;;8.80;6.93;;;;;;;5.76;57.08;97498.44;6735661;29;20672;-82
2024/01/15 13:40:19;;;;;;;7.83;6.37;;;;;;;5.67;57.97;97501.50;6724977;29;20237;-82
2024/01/15 13:43:41;;;;;;;7.37;5.70;;;;;;;5.72;57.87;97496.38;6734520;29;20749;-81
2024/01/15 13:47:03;;;;;;;7.33;5.47;;;;;;;5.52;58.73;97500.88;6734855;29;20233;-80
2024/01/15 13:50:24;;;;;;;6.67;4.80;;;;;;;5.44;58.24;97509.94;6724223;29;20242;-81
2024/01/15 13:53:46;;;;;;;6.20;5.17;;;;;;;5.74;58.21;97526.41;6734840;29;20208;-81
2024/01/15 13:57:09;;;;;;;7.40;5.40;;;;;;;5.92;58.19;97521.28;6735071;29;20237;-83
2024/01/15 14:00:32;;;;;;;9.80;4.80;;;;;;;6.01;57.14;97512.81;6724532;29;20324;-84
2024/01/15 14:03:54;;;;;;;11.47;5.00;;;;;;;6.16;57.00;97520.63;6732679;29;20236;-82
2024/01/15 14:07:16;;;;;;;9.20;5.80;;;;;;;6.12;57.70;97530.09;6733291;29;20246;-82
2024/01/15 14:10:38;;;;;;;11.03;4.90;;;;;;;5.94;58.59;97544.13;6733941;29;20215;-82
2024/01/15 14:14:01;;;;;;;7.53;5.63;;;;;;;5.75;58.63;97528.88;6730641;29;20207;-83
2024/01/15 14:17:23;;;;;;;5.40;4.63;;;;;;;5.72;58.98;97534.63;6732999;29;20232;-82
2024/01/15 14:20:45;;;;;;;8.53;5.83;;;;;;;5.70;58.98;97527.81;6744437;29;20236;-82
2024/01/15 14:24:06;;;;;;;8.13;4.97;;;;;;;6.03;57.54;97536.69;6735804;29;20229;-81
2024/01/15 14:27:28;;;;;;;8.53;6.13;;;;;;;6.06;57.76;97555.84;6735149;29;20229;-80
2024/01/15 14:30:52;;;;;;;7.23;5.70;;;;;;;6.00;58.13;97548.63;6736845;29;20255;-81
2024/01/15 14:34:18;;;;;;;8.70;5.50;;;;;;;6.07;57.81;97560.16;6726755;29;20223;-81
2024/01/15 14:37:40;;;;;;;5.93;4.67;;;;;;;5.72;59.16;97539.16;6732672;29;20234;-82
2024/01/15 14:41:01;;;;;;;6.63;5.03;;;;;;;6.01;58.78;97558.31;6730784;29;20232;-81
2024/01/15 14:44:23;;;;;;;8.87;4.67;;;;;;;6.28;58.33;97592.06;6732901;29;20241;-82
2024/01/15 14:47:46;;;;;;;9.97;6.17;;;;;;;5.93;59.05;97579.09;6726273;29;20244;-80
2024/01/15 14:51:08;;;;;;;7.07;5.43;;;;;;;6.36;58.28;97609.75;6728656;29;20213;-81
2024/01/15 14:54:30;;;;;;;9.13;6.10;;;;;;;5.59;60.38;97605.97;6725069;29;20209;-81
2024/01/15 14:57:52;;;;;;;7.37;6.67;;;;;;;5.20;60.21;97624.56;6726149;29;20236;-81
2024/01/15 15:01:14;;;;;;;7.03;6.17;;;;;;;5.54;59.75;97624.47;6729601;29;20237;-82
2024/01/15 15:04:37;;;;;;;7.20;6.50;;;;;;;5.35;59.42;97636.75;6730611;29;20365;-80
2024/01/15 15:07:58;;;;;;;8.70;7.80;;;;;;;5.04;60.19;97632.94;6729049;29;20322;-81
2024/01/15 15:11:20;;;;;;;10.93;8.13;;;;;;;5.15;60.05;97640.38;6732043;29;20296;-81
2024/01/15 15:14:42;;;;;;;12.43;8.80;;;;;;;5.64;59.38;97652.47;6730538;29;20243;-81
2024/01/15 15:18:04;;;;;;;13.37;9.13;;;;;;;5.48;59.71;97646.66;6729607;29;20237;-82
2024/01/15 15:21:28;;;;;;;11.80;8.73;;;;;;;5.05;60.16;97645.25;6732266;29;20249;-81
2024/01/15 15:24:50;;;;;;;10.27;7.90;;;;;;;5.42;59.22;97666.19;6735531;29;20300;-81
2024/01/15 15:28:16;;;;;;;10.50;8.90;;;;;;;4.86;60.16;97694.06;6731327;29;20369;-82
2024/01/15 15:31:38;;;;;;;9.63;8.17;;;;;;;5.23;59.97;97688.28;6724446;29;20263;-81
2024/01/15 15:34:59;;;;;;;10.17;7.23;;;;;;;5.43;58.48;97691.88;6723824;29;20209;-81
2024/01/15 15:38:23;;;;;;;8.90;8.00;;;;;;;5.41;58.46;97684.06;6729941;29;20234;-81
2024/01/15 15:41:44;;;;;;;7.77;6.97;;;;;;;5.45;57.73;97703.19;6729165;29;20226;-82
2024/01/15 15:45:07;;;;;;;10.67;7.07;;;;;;;5.51;57.37;97713.91;6724488;29;20220;-81
2024/01/15 15:48:28;;;;;;;10.20;7.23;;;;;;;5.54;56.55;97691.31;6729418;29;20233;-81
2024/01/15 15:51:50;;;;;;;8.40;7.53;;;;;;;5.73;56.54;97703.91;6729610;29;20236;-81